createdAt,value
2018-11-14T00:00:30.655Z,12.00
2018-11-14T00:03:34.720Z,12.00
2018-11-14T00:06:39.182Z,11.90
2018-11-14T00:09:43.137Z,11.90
2018-11-14T00:12:47.215Z,11.90
2018-11-14T00:15:51.137Z,11.80
2018-11-14T00:18:55.475Z,11.80
2018-11-14T00:21:59.435Z,11.90
2018-11-14T00:25:04.197Z,11.90
2018-11-14T00:28:15.097Z,11.90
2018-11-14T00:31:19.182Z,11.90
2018-11-14T00:34:23.341Z,11.90
2018-11-14T00:37:27.854Z,11.90
2018-11-14T00:40:32.395Z,11.80
2018-11-14T00:43:36.386Z,11.90
2018-11-14T00:46:40.424Z,12.00
2018-11-14T00:49:44.446Z,12.00
2018-11-14T00:52:48.695Z,12.00
2018-11-14T00:55:52.929Z,12.00
2018-11-14T00:58:57.230Z,12.00
2018-11-14T01:02:02.548Z,12.00
2018-11-14T01:05:07.621Z,12.00
2018-11-14T01:08:11.571Z,12.00
2018-11-14T01:11:15.514Z,11.80
2018-11-14T01:14:19.704Z,11.70
2018-11-14T01:17:23.669Z,11.70
2018-11-14T01:20:27.613Z,11.70
2018-11-14T01:23:31.678Z,11.70
2018-11-14T01:26:35.580Z,11.70
2018-11-14T01:29:39.540Z,11.50
2018-11-14T01:32:44.739Z,11.40
2018-11-14T01:35:48.762Z,11.40
2018-11-14T01:38:52.813Z,11.40
2018-11-14T01:41:56.831Z,11.50
2018-11-14T01:45:06.974Z,11.60
2018-11-14T01:48:10.909Z,11.60
2018-11-14T01:51:14.922Z,11.70
2018-11-14T01:54:19.144Z,11.70
2018-11-14T01:57:23.489Z,11.70
2018-11-14T02:00:27.425Z,11.80
2018-11-14T02:03:31.348Z,11.80
2018-11-14T02:06:35.330Z,11.80
2018-11-14T02:09:39.351Z,11.90
2018-11-14T02:12:44.183Z,11.80
2018-11-14T02:15:48.414Z,11.80
2018-11-14T02:18:52.541Z,11.80
2018-11-14T02:21:56.894Z,11.80
2018-11-14T02:25:01.219Z,11.90
2018-11-14T02:28:05.867Z,11.90
2018-11-14T02:31:10.076Z,11.80
2018-11-14T02:34:14.278Z,11.80
2018-11-14T02:37:18.261Z,11.80
2018-11-14T02:40:23.019Z,11.70
2018-11-14T02:43:27.111Z,11.80
2018-11-14T02:46:31.030Z,11.80
2018-11-14T02:49:34.985Z,11.80
2018-11-14T02:52:39.154Z,11.70
2018-11-14T02:55:43.596Z,11.70
2018-11-14T02:58:47.685Z,11.60
2018-11-14T03:01:52.240Z,11.70
2018-11-14T03:04:56.158Z,11.60
2018-11-14T03:08:00.487Z,11.50
2018-11-14T03:11:04.483Z,11.40
2018-11-14T03:14:09.050Z,11.40
2018-11-14T03:17:13.312Z,11.30
2018-11-14T03:20:19.007Z,11.10
2018-11-14T03:23:23.278Z,11.00
2018-11-14T03:26:27.790Z,10.90
2018-11-14T03:29:32.131Z,10.90
2018-11-14T03:32:36.530Z,11.00
2018-11-14T03:35:45.978Z,11.00
2018-11-14T03:38:50.523Z,11.00
2018-11-14T03:41:54.761Z,11.00
2018-11-14T03:44:59.017Z,10.90
2018-11-14T03:48:03.321Z,10.90
2018-11-14T03:51:07.688Z,10.80
2018-11-14T03:54:12.027Z,10.90
2018-11-14T03:57:16.210Z,11.00
2018-11-14T04:00:20.559Z,11.00
2018-11-14T04:03:25.182Z,11.00
2018-11-14T04:06:29.422Z,11.00
2018-11-14T04:09:34.020Z,11.00
2018-11-14T04:12:38.395Z,11.00
2018-11-14T04:15:42.764Z,11.00
2018-11-14T04:18:47.063Z,11.00
2018-11-14T04:21:51.411Z,11.10
2018-11-14T04:24:55.766Z,11.10
2018-11-14T04:28:00.179Z,11.00
2018-11-14T04:31:04.438Z,10.90
2018-11-14T04:34:09.092Z,10.80
2018-11-14T04:37:13.356Z,10.80
2018-11-14T04:40:19.337Z,10.80
2018-11-14T04:43:23.545Z,10.90
2018-11-14T04:46:28.015Z,10.90
2018-11-14T04:49:32.364Z,11.00
2018-11-14T04:52:36.659Z,10.90
2018-11-14T04:55:40.834Z,11.00
2018-11-14T04:58:45.337Z,11.00
2018-11-14T05:01:49.485Z,11.10
2018-11-14T05:04:53.931Z,11.00
2018-11-14T05:07:58.261Z,11.00
2018-11-14T05:11:02.512Z,11.00
2018-11-14T05:14:07.379Z,11.00
2018-11-14T05:17:11.744Z,11.00
2018-11-14T05:20:17.070Z,11.10
2018-11-14T05:23:21.594Z,11.00
2018-11-14T05:26:26.078Z,11.00
2018-11-14T05:29:30.362Z,11.00
2018-11-14T05:32:37.366Z,10.90
2018-11-14T05:35:41.808Z,10.80
2018-11-14T05:38:46.096Z,10.80
2018-11-14T05:41:50.235Z,10.80
2018-11-14T05:44:54.408Z,10.70
2018-11-14T05:47:58.629Z,10.80
2018-11-14T05:51:03.079Z,10.80
2018-11-14T05:54:07.411Z,10.70
2018-11-14T05:57:11.715Z,10.60
2018-11-14T06:00:24.134Z,10.70
2018-11-14T06:03:28.609Z,10.80
2018-11-14T06:06:32.781Z,10.80
2018-11-14T06:09:37.089Z,10.70
2018-11-14T06:12:47.825Z,10.70
2018-11-14T06:15:52.088Z,10.70
2018-11-14T06:18:56.428Z,10.70
2018-11-14T06:22:01.145Z,10.70
2018-11-14T06:25:16.166Z,10.60
2018-11-14T06:28:20.500Z,10.60
2018-11-14T06:31:24.819Z,10.70
2018-11-14T06:34:28.962Z,10.70
2018-11-14T06:37:33.328Z,10.70
2018-11-14T06:40:37.610Z,10.70
2018-11-14T06:43:42.084Z,10.80
2018-11-14T06:46:46.478Z,10.70
2018-11-14T06:49:51.114Z,10.70
2018-11-14T06:52:56.931Z,10.60
2018-11-14T06:56:01.167Z,10.40
2018-11-14T06:59:05.664Z,10.40
2018-11-14T07:02:10.177Z,10.40
2018-11-14T07:05:15.915Z,10.40
2018-11-14T07:08:20.978Z,10.30
2018-11-14T07:11:25.296Z,10.40
2018-11-14T07:14:29.472Z,10.50
2018-11-14T07:17:33.818Z,10.50
2018-11-14T07:20:40.185Z,10.60
2018-11-14T07:23:44.297Z,10.60
2018-11-14T07:26:48.606Z,10.50
2018-11-14T07:29:53.344Z,10.60
2018-11-14T07:32:58.987Z,10.70
2018-11-14T07:36:03.320Z,10.70
2018-11-14T07:39:10.065Z,10.80
2018-11-14T07:42:14.818Z,10.70
2018-11-14T07:45:19.429Z,10.70
2018-11-14T07:48:23.908Z,10.80
2018-11-14T07:51:28.917Z,10.80
2018-11-14T07:54:33.729Z,10.70
2018-11-14T07:57:38.217Z,10.90
2018-11-14T08:00:42.382Z,11.00
2018-11-14T08:03:46.915Z,11.10
2018-11-14T08:06:52.006Z,11.20
2018-11-14T08:09:56.221Z,11.00
2018-11-14T08:13:00.547Z,11.00
2018-11-14T08:16:05.299Z,11.10
2018-11-14T08:19:09.732Z,11.10
2018-11-14T08:22:14.105Z,11.10
2018-11-14T08:25:18.868Z,11.10
2018-11-14T08:28:23.321Z,11.10
2018-11-14T08:31:27.670Z,11.20
2018-11-14T08:34:32.192Z,11.20
2018-11-14T08:37:36.426Z,11.20
2018-11-14T08:40:40.962Z,11.30
2018-11-14T08:43:45.109Z,11.30
2018-11-14T08:46:49.375Z,11.20
2018-11-14T08:49:53.695Z,11.30
2018-11-14T08:52:58.035Z,11.20
2018-11-14T08:56:02.038Z,11.30
2018-11-14T08:59:06.426Z,11.40
2018-11-14T09:02:10.481Z,11.40
2018-11-14T09:05:14.741Z,11.50
2018-11-14T09:08:19.096Z,11.50
2018-11-14T09:11:23.615Z,11.60
2018-11-14T09:14:27.715Z,11.60
2018-11-14T09:17:31.899Z,11.70
2018-11-14T09:20:36.154Z,11.90
2018-11-14T09:23:40.669Z,12.00
2018-11-14T09:26:45.000Z,12.00
2018-11-14T09:29:49.417Z,12.10
2018-11-14T09:32:54.565Z,12.10
2018-11-14T09:35:58.737Z,12.10
2018-11-14T09:39:02.996Z,12.10
2018-11-14T09:42:06.996Z,12.20
2018-11-14T09:45:13.089Z,12.30
2018-11-14T09:48:17.058Z,12.40
2018-11-14T09:51:21.403Z,12.60
2018-11-14T09:54:25.307Z,13.20
2018-11-14T09:57:29.715Z,13.60
2018-11-14T10:00:34.719Z,14.10
2018-11-14T10:03:38.738Z,14.40
2018-11-14T10:06:43.023Z,14.60
2018-11-14T10:09:47.467Z,14.80
2018-11-14T10:12:51.456Z,14.90
2018-11-14T10:15:55.641Z,14.90
2018-11-14T10:18:59.877Z,14.90
2018-11-14T10:22:04.369Z,16.40
2018-11-14T10:25:08.252Z,19.40
2018-11-14T10:28:12.431Z,19.80
2018-11-14T10:31:16.361Z,19.20
2018-11-14T10:34:20.655Z,18.70
2018-11-14T10:37:24.523Z,18.40
2018-11-14T10:40:29.143Z,18.40
2018-11-14T10:43:33.428Z,18.40
2018-11-14T10:46:37.382Z,19.20
2018-11-14T10:49:41.354Z,20.40
2018-11-14T10:52:45.536Z,21.60
2018-11-14T10:55:50.018Z,23.90
2018-11-14T10:58:54.887Z,27.00
2018-11-14T11:02:04.239Z,29.10
2018-11-14T11:05:14.237Z,29.30
2018-11-14T11:08:26.168Z,29.10
2018-11-14T11:11:34.285Z,27.90
2018-11-14T11:14:43.176Z,26.70
2018-11-14T11:17:52.595Z,25.60
2018-11-14T11:20:56.551Z,25.00
2018-11-14T11:24:00.525Z,24.10
2018-11-14T11:27:04.742Z,22.90
2018-11-14T11:30:10.410Z,22.00
2018-11-14T11:33:14.279Z,21.50
2018-11-14T11:36:18.201Z,21.00
2018-11-14T11:39:22.470Z,20.20
2018-11-14T11:42:26.499Z,19.70
2018-11-14T11:45:30.825Z,20.00
2018-11-14T11:48:34.938Z,20.70
2018-11-14T11:51:38.874Z,23.60
2018-11-14T11:54:42.968Z,25.90
2018-11-14T11:57:47.194Z,26.90
2018-11-14T12:00:51.529Z,28.60
2018-11-14T12:03:56.529Z,29.90
2018-11-14T12:07:00.787Z,30.20
2018-11-14T12:10:05.428Z,31.00
2018-11-14T12:13:09.629Z,31.90
2018-11-14T12:16:13.560Z,31.30
2018-11-14T12:19:17.664Z,32.10
2018-11-14T12:22:21.572Z,33.10
2018-11-14T12:25:25.653Z,33.80
2018-11-14T12:28:29.557Z,34.30
2018-11-14T12:31:33.490Z,35.10
2018-11-14T12:34:37.477Z,35.30
2018-11-14T12:37:42.067Z,35.60
2018-11-14T12:40:46.393Z,35.40
2018-11-14T12:43:50.714Z,35.40
2018-11-14T12:46:54.642Z,35.50
2018-11-14T12:49:58.606Z,35.30
2018-11-14T12:53:03.321Z,35.20
2018-11-14T12:56:07.454Z,35.10
2018-11-14T12:59:11.366Z,34.90
2018-11-14T13:02:15.760Z,34.70
2018-11-14T13:05:19.726Z,34.80
2018-11-14T13:08:23.702Z,34.90
2018-11-14T13:11:27.611Z,34.10
2018-11-14T13:14:32.011Z,34.10
2018-11-14T13:17:35.948Z,34.00
2018-11-14T13:20:39.894Z,33.40
2018-11-14T13:23:44.004Z,32.60
2018-11-14T13:26:48.362Z,31.40
2018-11-14T13:29:52.830Z,30.20
2018-11-14T13:32:56.972Z,29.70
2018-11-14T13:36:01.238Z,29.60
2018-11-14T13:39:07.737Z,29.20
2018-11-14T13:42:11.621Z,28.20
2018-11-14T13:45:17.466Z,26.80
2018-11-14T13:48:21.341Z,25.00
2018-11-14T13:51:25.730Z,23.60
2018-11-14T13:54:30.127Z,22.40
2018-11-14T13:57:34.411Z,21.30
2018-11-14T14:00:38.328Z,20.30
2018-11-14T14:03:42.699Z,19.60
2018-11-14T14:06:46.997Z,18.80
2018-11-14T14:09:50.919Z,18.40
2018-11-14T14:12:55.292Z,17.80
2018-11-14T14:15:59.639Z,17.30
2018-11-14T14:19:03.923Z,17.10
2018-11-14T14:22:08.311Z,16.90
2018-11-14T14:25:13.692Z,16.70
2018-11-14T14:28:17.874Z,16.50
2018-11-14T14:31:22.009Z,16.30
2018-11-14T14:34:25.934Z,16.20
2018-11-14T14:37:30.410Z,16.00
2018-11-14T14:40:34.765Z,15.80
2018-11-14T14:43:38.696Z,15.60
2018-11-14T14:46:42.836Z,15.50
2018-11-14T14:49:46.763Z,15.40
2018-11-14T14:52:51.172Z,15.40
2018-11-14T14:55:55.414Z,15.30
2018-11-14T14:58:59.554Z,15.30
2018-11-14T15:02:04.150Z,15.20
2018-11-14T15:05:09.112Z,15.00
2018-11-14T15:08:13.455Z,14.80
2018-11-14T15:11:17.376Z,14.70
2018-11-14T15:14:21.400Z,14.50
2018-11-14T15:17:25.403Z,14.40
2018-11-14T15:20:29.362Z,14.40
2018-11-14T15:23:33.691Z,14.40
2018-11-14T15:26:37.696Z,14.20
2018-11-14T15:29:42.147Z,14.20
2018-11-14T15:32:46.483Z,14.20
2018-11-14T15:35:50.903Z,14.20
2018-11-14T15:38:55.112Z,14.10
2018-11-14T15:41:59.518Z,14.10
2018-11-14T15:45:03.662Z,14.10
2018-11-14T15:48:08.082Z,14.10
2018-11-14T15:51:15.471Z,14.00
2018-11-14T15:54:19.757Z,14.00
2018-11-14T15:57:24.145Z,14.00
2018-11-14T16:00:29.250Z,14.00
2018-11-14T16:03:33.522Z,14.00
2018-11-14T16:06:37.948Z,14.00
2018-11-14T16:09:42.192Z,14.00
2018-11-14T16:12:46.712Z,14.00
2018-11-14T16:15:51.127Z,14.00
2018-11-14T16:18:55.724Z,14.00
2018-11-14T16:21:59.735Z,14.10
2018-11-14T16:25:04.446Z,14.10
2018-11-14T16:28:08.702Z,14.10
2018-11-14T16:31:12.684Z,14.00
2018-11-14T16:34:19.914Z,14.00
2018-11-14T16:37:24.183Z,13.90
2018-11-14T16:40:30.740Z,13.90
2018-11-14T16:43:35.256Z,13.90
2018-11-14T16:46:39.788Z,13.80
2018-11-14T16:49:44.015Z,13.80
2018-11-14T16:52:48.399Z,13.70
2018-11-14T16:55:52.538Z,13.60
2018-11-14T16:58:56.398Z,13.50
2018-11-14T17:02:00.780Z,13.40
2018-11-14T17:05:06.438Z,13.40
2018-11-14T17:08:10.670Z,13.40
2018-11-14T17:11:15.369Z,13.30
2018-11-14T17:14:19.811Z,13.20
2018-11-14T17:17:23.669Z,13.10
2018-11-14T17:20:28.022Z,13.00
2018-11-14T17:23:32.296Z,12.90
2018-11-14T17:26:36.476Z,12.80
2018-11-14T17:29:40.448Z,12.80
2018-11-14T17:32:44.575Z,12.70
2018-11-14T17:35:48.916Z,12.70
2018-11-14T17:38:52.946Z,12.60
2018-11-14T17:41:57.434Z,12.60
2018-11-14T17:45:01.656Z,12.60
2018-11-14T17:48:06.821Z,12.60
2018-11-14T17:51:10.810Z,12.60
2018-11-14T17:54:15.090Z,12.60
2018-11-14T17:57:19.025Z,12.70
2018-11-14T18:00:25.444Z,12.60
2018-11-14T18:03:29.628Z,12.60
2018-11-14T18:06:34.005Z,12.60
2018-11-14T18:09:38.178Z,12.70
2018-11-14T18:12:42.888Z,12.60
2018-11-14T18:15:47.257Z,12.70
2018-11-14T18:18:51.432Z,12.70
2018-11-14T18:21:55.789Z,12.60
2018-11-14T18:24:59.780Z,12.50
2018-11-14T18:28:04.036Z,12.40
2018-11-14T18:31:08.596Z,12.40
2018-11-14T18:34:13.107Z,12.20
2018-11-14T18:37:17.450Z,12.10
2018-11-14T18:40:23.151Z,11.90
2018-11-14T18:43:27.431Z,11.90
2018-11-14T18:46:31.832Z,12.00
2018-11-14T18:49:36.443Z,11.90
2018-11-14T18:52:40.647Z,12.00
2018-11-14T18:55:44.805Z,12.00
2018-11-14T18:58:49.100Z,12.10
2018-11-14T19:01:53.699Z,12.10
2018-11-14T19:04:58.047Z,12.10
2018-11-14T19:08:02.345Z,12.10
2018-11-14T19:11:06.902Z,12.20
2018-11-14T19:14:10.854Z,12.20
2018-11-14T19:17:15.255Z,12.20
2018-11-14T19:20:20.861Z,12.20
2018-11-14T19:23:25.231Z,12.30
2018-11-14T19:26:29.682Z,12.20
2018-11-14T19:29:34.109Z,12.20
2018-11-14T19:32:38.392Z,12.20
2018-11-14T19:35:42.784Z,12.20
2018-11-14T19:38:47.227Z,12.20
2018-11-14T19:41:51.731Z,12.10
2018-11-14T19:44:56.231Z,12.20
2018-11-14T19:48:00.513Z,12.20
2018-11-14T19:51:05.448Z,12.20
2018-11-14T19:54:10.233Z,12.20
2018-11-14T19:57:14.270Z,12.20
2018-11-14T20:00:21.880Z,12.10
2018-11-14T20:03:26.205Z,12.10
2018-11-14T20:06:30.514Z,12.00
2018-11-14T20:09:34.428Z,12.00
2018-11-14T20:12:39.017Z,11.90
2018-11-14T20:15:43.311Z,11.90
2018-11-14T20:18:47.320Z,11.90
2018-11-14T20:21:51.716Z,11.90
2018-11-14T20:24:56.139Z,11.80
2018-11-14T20:28:00.558Z,11.80
2018-11-14T20:31:05.088Z,11.80
2018-11-14T20:34:09.099Z,11.80
2018-11-14T20:37:13.435Z,11.70
2018-11-14T20:40:18.974Z,11.60
2018-11-14T20:43:23.002Z,11.60
2018-11-14T20:46:27.596Z,11.60
2018-11-14T20:49:32.926Z,11.70
2018-11-14T20:52:37.405Z,11.80
2018-11-14T20:55:41.875Z,11.90
2018-11-14T20:58:46.026Z,11.90
2018-11-14T21:01:50.672Z,11.80
2018-11-14T21:04:54.939Z,11.80
2018-11-14T21:07:59.357Z,11.90
2018-11-14T21:11:03.575Z,11.90
2018-11-14T21:14:08.157Z,12.00
2018-11-14T21:17:12.473Z,11.90
2018-11-14T21:20:16.868Z,11.90
2018-11-14T21:23:20.823Z,11.90
2018-11-14T21:26:25.078Z,11.90
2018-11-14T21:29:30.161Z,11.90
2018-11-14T21:32:34.433Z,11.90
2018-11-14T21:35:38.811Z,11.80
2018-11-14T21:38:44.056Z,11.80
2018-11-14T21:41:48.430Z,11.80
2018-11-14T21:44:52.498Z,11.60
2018-11-14T21:48:02.334Z,11.50
2018-11-14T21:51:06.644Z,11.40
2018-11-14T21:54:11.496Z,11.40
2018-11-14T21:57:15.843Z,11.40
2018-11-14T22:00:37.487Z,11.40
2018-11-14T22:03:41.539Z,11.50
2018-11-14T22:06:45.591Z,11.50
2018-11-14T22:09:50.030Z,11.50
2018-11-14T22:12:54.079Z,11.50
2018-11-14T22:15:58.007Z,11.50
2018-11-14T22:19:02.981Z,11.50
2018-11-14T22:22:07.277Z,11.40
2018-11-14T22:25:12.478Z,11.40
2018-11-14T22:28:16.850Z,11.30
2018-11-14T22:31:21.223Z,11.40
2018-11-14T22:34:25.480Z,11.30
2018-11-14T22:37:29.750Z,11.30
2018-11-14T22:40:34.466Z,11.20
2018-11-14T22:43:38.781Z,11.20
2018-11-14T22:46:43.185Z,11.20
2018-11-14T22:49:47.902Z,11.10
2018-11-14T22:52:52.716Z,11.10
2018-11-14T22:55:57.133Z,11.10
2018-11-14T22:59:01.054Z,11.10
2018-11-14T23:02:05.760Z,11.10
2018-11-14T23:05:10.171Z,11.10
2018-11-14T23:08:14.183Z,11.10
2018-11-14T23:11:18.124Z,11.10
2018-11-14T23:14:22.197Z,11.20
2018-11-14T23:17:26.418Z,11.20
2018-11-14T23:20:30.748Z,11.20
2018-11-14T23:23:34.733Z,11.20
2018-11-14T23:26:38.979Z,11.20
2018-11-14T23:29:43.365Z,11.20
2018-11-14T23:32:49.452Z,11.20
2018-11-14T23:35:53.861Z,11.30
2018-11-14T23:38:58.298Z,11.30
2018-11-14T23:42:02.569Z,11.30
2018-11-14T23:45:08.741Z,11.30
2018-11-14T23:48:13.039Z,11.30
2018-11-14T23:51:17.091Z,11.30
2018-11-14T23:54:21.317Z,11.30
2018-11-14T23:57:25.558Z,11.20
